Platinum Airport
PAPM : now visible

Airfield :











YOU CAN JOIN US ON...

 
LOGIN :

Register | Disclaimer

   EN    FR    IT 

 









Legend :    VFR   Marginal VFR   IFR   Intensive IFR   Very Intensive IFR
Visi :
Ceiling :
>= 8 km
>= 3000ft
5 to 8 km
1000 to 3000 ft
1500m to 5 km
500 to 1000 ft
800 to 1500m
200 to 500 ft
< 800m
< 200 ft
Symbols :   Thunderstorms  Fog  Heavy snow  Heavy precipitations  Wind > 20 kt






- Airport Elevation : 15 ft
- IATA code : PTU


PAPM - Platinum

CURRENT METAR :
  • 091812Z AUTO 18017KT 1 3/4SM -SN BR FEW004 BKN015 OVC029 00/M01 A3030 RMK AO2 P0000 FZRANO

EXPIRED METARs :
  • 091805Z AUTO 17015KT 2SM -SN BR SCT004 BKN011 OVC029 00/M01 A3030 RMK AO2 P0000 FZRANO
  • 091756Z AUTO 17016KT 1 1/2SM -SN BR BKN006 BKN011 OVC014 00/M01 A3029 RMK AO2 CIG 003V007 SLP260 P0000 60000 T00001006 10000 21006 53006 FZRANO
  • 091735Z AUTO 18015KT 3/4SM -SN BR OVC008 M01/M01 A3029 RMK AO2 CIG 005V010 P0000 FZRANO
  • 091720Z AUTO 18014KT 1 3/4SM -SN BR OVC008 M01/M01 A3029 RMK AO2 VIS 1 1/4V4 P0000 FZRANO
  • 091708Z AUTO 18014KT 3SM -SN BR BKN008 OVC029 M01/M01 A3029 RMK AO2 P0000 FZRANO
  • 091656Z AUTO 18014KT 1 1/4SM -SN BR OVC008 M01/M01 A3028 RMK AO2 CIG 004V009 SLP257 P0000 T10061011 FZRANO
  • 091633Z AUTO 18016KT 1 1/2SM -SN BR OVC008 00/M01 A3028 RMK AO2 VIS 1V2 P0000 FZRANO
  • 091620Z AUTO 17016KT 2 1/2SM -SN BR OVC008 00/M01 A3028 RMK AO2 P0000 FZRANO
  • 091605Z AUTO 17015KT 1 3/4SM -SN BR OVC008 00/M01 A3028 RMK AO2 CIG 005V009 P0000 FZRANO
  • 091542Z AUTO 17016KT 2 1/2SM -SN BR OVC006 00/M01 A3027 RMK AO2 CIG 005V011 P0000 FZRANO

TAF N/A



MET'MAP, your aeronautical weather chart ! - Copyright ORBIFLY December 2007 - Disclaimer

ORBIFLY MET'MAP TEAM :

Programming & Development : Alexandra Zaïnal
Concept & original design : Baudouin d'Aumeries
Assistance for programming : Marc-Olivier Méhu
Technical & hardware support : Manuel Goepfert

Contact : metmap@orbifly.com




SOURCES & CREDITS :

   NOAA       Earth
Advisory